Impacts METAR Board
IDs:

KSEP - Stephenville/Clark F, TX, US

Updated at: 1300 UTC 14 Dec 2019
Potential Impact None Slight Moderate High
Time 14/01Z 14/02Z 14/03Z 14/04Z 14/05Z 14/06Z 14/07Z 14/08Z 14/09Z 14/10Z 14/11Z 14/12Z 14/13Z
Temp55 52 47 45 42 42 38 42 40 40 39 38 37
Dewpt40 40 39 39 37 38 35 38 37 36 36 34 35
Altim29.88 29.89 29.90 29.90 29.90 29.90 29.90 29.91 29.90 29.90 29.90 29.89 29.90
VIS10 10 10 10 10 10 10 10 10 10 10 10 10
CIG-- -- -- -- -- -- -- -- -- -- -- -- --
CoverCLRCLRCLRCLRCLRCLRCLRCLRCLRCLRCLRCLRCLR
FltCatVFRVFRVFRVFRVFRVFRVFRVFRVFRVFRVFRVFRVFR
WX--------------------------
WDir0003300003300320330360350
WSpd0 0 0 3 0 0 0 5 0 4 4 3 3
WGst-- -- -- -- -- -- -- -- -- -- -- -- --
Raw hourly METARs
KSEP 140055Z AUTO 00000KT 10SM CLR 13/05 A2988 RMK AO2 T01250047
KSEP 140155Z AUTO 00000KT 10SM CLR 11/05 A2989 RMK AO2 T01110047
KSEP 140255Z AUTO 00000KT 10SM CLR 08/04 A2990 RMK AO2 T00810041
KSEP 140355Z AUTO 33003KT 10SM CLR 07/04 A2990 RMK AO2 T00730041
KSEP 140455Z AUTO 00000KT 10SM CLR 05/03 A2990 RMK AO2 T00540030
KSEP 140555Z AUTO 00000KT 10SM CLR 06/03 A2990 RMK AO2 T00580031 10143 20050 401970050
KSEP 140655Z AUTO 00000KT 10SM CLR 03/02 A2990 RMK AO2 T00330016
KSEP 140755Z AUTO 33005KT 10SM CLR 05/03 A2991 RMK AO2 T00540033
KSEP 140855Z AUTO 00000KT 10SM CLR 05/03 A2990 RMK AO2 T00470026
KSEP 140955Z AUTO 32004KT 10SM CLR 04/02 A2990 RMK AO2 T00440021
KSEP 141055Z AUTO 33004KT 10SM CLR 04/02 A2990 RMK AO2 T00400021
KSEP 141155Z AUTO 36003KT 10SM CLR 03/01 A2989 RMK AO2 T00330013 10059 20032
KSEP 141255Z AUTO 35003KT 10SM CLR 03/01 A2990 RMK AO2 T00290014



Page loaded:  13:49 UTC  |   05:49 AM Pacific  |   06:49 AM Mountain  |   07:49 AM Central  |   08:49 AM Eastern

 

ADVISORIES

FORECASTS

FORECASTS

OBSERVATIONS

USER TOOLS

ABOUT US